Time;durP1;ratioP1;P1;durP2;ratioP2;P2;SDS_P1;SDS_P2;PMS_P1;PMS_P2;Temp;Humidity;BMP_temperature;BMP_pressure;BME280_temperature;BME280_humidity;BME280_pressure;Samples;Min_cycle;Max_cycle;Signal;HPM_P1;HPM_P2
2023/04/10 00:05:15;;;;;;;;;;;;;;;9.73;70.20;102478.47;20805068;28;19960;-56
2023/04/10 00:15:36;;;;;;;;;;;;;;;9.68;70.71;102466.41;20820495;28;20372;-56
2023/04/10 00:25:57;;;;;;;;;;;;;;;9.57;71.00;102452.63;20802720;28;19979;-56
2023/04/10 00:36:19;;;;;;;;;;;;;;;9.51;70.57;102437.97;20806782;28;19929;-56
2023/04/10 00:46:41;;;;;;;;;;;;;;;9.50;70.23;102425.06;20788793;28;20490;-56
2023/04/10 00:57:05;;;;;;;;;;;;;;;9.48;70.39;102408.69;20799922;28;19991;-54
2023/04/10 01:07:42;;;;;;;;;;;;;;;9.53;71.12;102394.91;20797473;28;19932;-56
2023/04/10 01:18:13;;;;;;;;;;;;;;;9.50;70.29;102388.91;20798348;28;19964;-56
2023/04/10 01:28:40;;;;;;;;;;;;;;;9.51;70.49;102385.44;20799326;28;19971;-56
2023/04/10 01:39:02;;;;;;;;;;;;;;;9.45;71.41;102385.47;20788296;28;19933;-55
2023/04/10 01:49:25;;;;;;;;;;;;;;;9.32;72.79;102373.41;20812087;28;20568;-56
2023/04/10 01:59:46;;;;;;;;;;;;;;;9.20;71.92;102357.88;20801708;28;20351;-56
2023/04/10 02:10:14;;;;;;;;;;;;;;;9.08;72.50;102354.44;20800771;28;20046;-55
2023/04/10 02:20:36;;;;;;;;;;;;;;;9.03;72.68;102340.66;20797248;28;20343;-55
2023/04/10 02:30:57;;;;;;;;;;;;;;;8.92;73.93;102332.06;20796899;28;19956;-56
2023/04/10 02:41:19;;;;;;;;;;;;;;;8.90;73.26;102331.19;20801155;28;19925;-55
2023/04/10 02:51:40;;;;;;;;;;;;;;;8.80;74.01;102332.06;20790342;28;19933;-56
2023/04/10 03:02:01;;;;;;;;;;;;;;;8.76;74.32;102320.00;20804815;28;19967;-54
2023/04/10 03:12:23;;;;;;;;;;;;;;;8.75;73.80;102302.78;20814810;28;19968;-56
2023/04/10 03:22:44;;;;;;;;;;;;;;;8.69;74.33;102297.63;20810136;28;20327;-56
2023/04/10 03:33:06;;;;;;;;;;;;;;;8.61;74.14;102281.25;20815276;28;20007;-56
2023/04/10 03:43:28;;;;;;;;;;;;;;;8.57;74.40;102276.94;20780411;28;19995;-55
2023/04/10 03:53:50;;;;;;;;;;;;;;;8.52;74.43;102278.66;20802942;28;20269;-54
2023/04/10 04:04:11;;;;;;;;;;;;;;;8.47;74.12;102280.38;20812896;28;19975;-56
2023/04/10 04:14:33;;;;;;;;;;;;;;;8.46;73.63;102273.50;20808374;28;20303;-56
2023/04/10 04:24:54;;;;;;;;;;;;;;;8.44;74.11;102290.69;20811269;28;19928;-56
2023/04/10 04:35:16;;;;;;;;;;;;;;;8.39;74.55;102289.81;20802375;28;20131;-55
2023/04/10 04:45:37;;;;;;;;;;;;;;;8.39;74.14;102289.81;20801493;28;19929;-56
2023/04/10 04:55:59;;;;;;;;;;;;;;;8.38;73.49;102285.53;20792056;28;19925;-56
2023/04/10 05:06:21;;;;;;;;;;;;;;;8.34;74.53;102282.94;20802702;28;19933;-56
2023/04/10 05:16:42;;;;;;;;;;;;;;;8.33;74.22;102266.63;20800346;28;19937;-56
2023/04/10 05:27:03;;;;;;;;;;;;;;;8.41;73.73;102244.25;20785471;28;19925;-56
2023/04/10 05:37:25;;;;;;;;;;;;;;;8.54;72.08;102250.28;20809403;28;19952;-54
2023/04/10 05:47:46;;;;;;;;;;;;;;;8.67;72.72;102252.03;20794566;28;20013;-58
2023/04/10 05:58:08;;;;;;;;;;;;;;;8.84;71.92;102246.03;20798954;28;19940;-54
2023/04/10 06:08:29;;;;;;;;;;;;;;;9.05;72.35;102240.84;20801031;28;19937;-55
2023/04/10 06:18:51;;;;;;;;;;;;;;;9.23;71.39;102229.59;20795972;28;20694;-56
2023/04/10 06:29:13;;;;;;;;;;;;;;;9.45;70.42;102227.88;20794478;28;19929;-56
2023/04/10 06:39:34;;;;;;;;;;;;;;;9.71;69.56;102202.75;20796435;28;20291;-56
2023/04/10 06:49:56;;;;;;;;;;;;;;;10.06;67.55;102209.50;20797080;28;19928;-54
2023/04/10 07:00:18;;;;;;;;;;;;;;;10.36;66.45;102198.13;20780878;28;20288;-55
2023/04/10 07:10:39;;;;;;;;;;;;;;;10.61;65.63;102197.06;20800471;28;19925;-57
2023/04/10 07:21:01;;;;;;;;;;;;;;;10.92;64.82;102184.69;20795785;28;19926;-56
2023/04/10 07:31:22;;;;;;;;;;;;;;;11.28;63.32;102163.56;20797355;28;20479;-54
2023/04/10 07:41:44;;;;;;;;;;;;;;;11.60;63.74;102145.06;20794613;28;19929;-55
2023/04/10 07:52:05;;;;;;;;;;;;;;;11.93;63.60;102116.97;20807531;28;19952;-56
2023/04/10 08:02:27;;;;;;;;;;;;;;;12.35;62.01;102105.03;20817069;28;20340;-56
2023/04/10 08:12:49;;;;;;;;;;;;;;;12.80;60.68;102087.78;20804628;28;19940;-56
2023/04/10 08:23:10;;;;;;;;;;;;;;;13.17;60.43;102082.78;20800624;28;19929;-55
2023/04/10 08:33:41;;;;;;;;;;;;;;;13.54;59.53;102065.47;20814387;28;20281;-55
2023/04/10 08:44:04;;;;;;;;;;;;;;;13.90;58.06;102036.84;20801736;28;19987;-56
2023/04/10 08:54:32;;;;;;;;;;;;;;;14.17;57.53;102009.31;20799853;28;19929;-56
2023/04/10 09:04:54;;;;;;;;;;;;;;;14.47;56.47;101992.88;20786826;28;19956;-56
2023/04/10 09:15:15;;;;;;;;;;;;;;;14.75;55.90;101966.91;20815076;28;19995;-54
2023/04/10 09:25:40;;;;;;;;;;;;;;;15.13;55.71;101943.16;20793806;28;19925;-56
2023/04/10 09:36:02;;;;;;;;;;;;;;;15.48;51.22;101923.81;20783478;28;19925;-56
2023/04/10 09:46:27;;;;;;;;;;;;;;;15.81;50.52;101901.81;20787348;28;20292;-55
2023/04/10 09:56:49;;;;;;;;;;;;;;;16.02;49.21;101885.41;20792708;28;20016;-54
2023/04/10 10:07:11;;;;;;;;;;;;;;;16.35;44.00;101891.19;20779182;28;20040;-56
2023/04/10 10:17:48;;;;;;;;;;;;;;;16.48;50.26;101859.31;20790150;28;19975;-56
2023/04/10 10:28:11;;;;;;;;;;;;;;;16.61;50.49;101849.28;20791341;28;19929;-55
2023/04/10 10:38:33;;;;;;;;;;;;;;;16.75;50.21;101824.31;20795643;28;19994;-55
2023/04/10 10:48:55;;;;;;;;;;;;;;;16.89;51.70;101798.47;20788590;28;19929;-55
2023/04/10 10:59:17;;;;;;;;;;;;;;;17.08;49.91;101780.25;20783552;28;19935;-56
2023/04/10 11:09:56;;;;;;;;;;;;;;;17.20;50.57;101771.03;20799639;28;19944;-54
2023/04/10 11:20:19;;;;;;;;;;;;;;;17.24;50.74;101734.22;20798525;28;20388;-56
2023/04/10 11:30:41;;;;;;;;;;;;;;;17.21;49.27;101715.19;20805233;28;19925;-56
2023/04/10 11:41:04;;;;;;;;;;;;;;;17.53;49.19;101691.94;20807386;28;19929;-56
2023/04/10 11:51:27;;;;;;;;;;;;;;;17.77;50.31;101682.13;20803763;28;19925;-55
2023/04/10 12:01:52;;;;;;;;;;;;;;;18.08;48.57;101650.97;20808145;28;20303;-55
2023/04/10 12:12:14;;;;;;;;;;;;;;;18.25;47.59;101637.91;20801901;28;19925;-55
2023/04/10 12:22:35;;;;;;;;;;;;;;;18.29;43.87;101604.53;20796363;28;20304;-55
2023/04/10 12:32:59;;;;;;;;;;;;;;;18.46;46.07;101596.72;20803421;28;19943;-55
2023/04/10 12:43:31;;;;;;;;;;;;;;;18.50;43.82;101583.38;20795262;28;20375;-56
2023/04/10 12:53:52;;;;;;;;;;;;;;;18.68;47.20;101553.59;20799959;28;19968;-54
2023/04/10 13:04:14;;;;;;;;;;;;;;;18.86;46.69;101536.06;20780527;28;19963;-56
2023/04/10 13:14:36;;;;;;;;;;;;;;;18.90;45.36;101508.72;20801360;28;19929;-57
2023/04/10 13:24:58;;;;;;;;;;;;;;;18.80;46.89;101481.28;20799426;28;19929;-56
2023/04/10 13:35:20;;;;;;;;;;;;;;;18.51;44.61;101468.88;20804165;28;19972;-54
2023/04/10 13:45:42;;;;;;;;;;;;;;;18.51;48.41;101440.91;20795188;28;19925;-55
2023/04/10 13:56:04;;;;;;;;;;;;;;;18.73;45.88;101422.25;20791745;28;20012;-55
2023/04/10 14:06:26;;;;;;;;;;;;;;;18.84;44.39;101388.41;20797541;28;20420;-55
2023/04/10 14:16:47;;;;;;;;;;;;;;;18.88;43.82;101369.78;20783009;28;19935;-54
2023/04/10 14:27:08;;;;;;;;;;;;;;;18.84;46.89;101357.75;20794676;28;19929;-55
2023/04/10 14:37:33;;;;;;;;;;;;;;;18.78;44.44;101342.38;20800878;28;19929;-56
2023/04/10 14:47:55;;;;;;;;;;;;;;;18.61;46.82;101316.25;20791316;28;19926;-56
2023/04/10 14:58:16;;;;;;;;;;;;;;;18.47;43.32;101302.19;20793601;28;19979;-56
2023/04/10 15:08:38;;;;;;;;;;;;;;;18.40;43.91;101283.31;20778554;28;19984;-56
2023/04/10 15:18:59;;;;;;;;;;;;;;;18.29;46.29;101259.50;20776214;28;19929;-56
2023/04/10 15:29:20;;;;;;;;;;;;;;;18.19;46.03;101245.19;20798584;28;19983;-56
2023/04/10 15:39:42;;;;;;;;;;;;;;;18.20;46.49;101202.34;20788647;28;19933;-56
2023/04/10 15:50:03;;;;;;;;;;;;;;;18.03;46.42;101168.38;20765084;28;19936;-56
2023/04/10 16:00:25;;;;;;;;;;;;;;;17.99;45.86;101167.69;20795422;28;19933;-56
2023/04/10 16:10:46;;;;;;;;;;;;;;;17.92;47.76;101168.13;20804412;28;20012;-55
2023/04/10 16:21:08;;;;;;;;;;;;;;;17.89;49.21;101152.59;20803463;28;19995;-56
2023/04/10 16:31:29;;;;;;;;;;;;;;;17.78;48.97;101142.66;20808334;28;19925;-56
2023/04/10 16:41:51;;;;;;;;;;;;;;;17.69;49.15;101129.28;20802242;28;20428;-56
2023/04/10 16:52:12;;;;;;;;;;;;;;;17.63;48.45;101127.81;20804364;28;19929;-55
2023/04/10 17:02:34;;;;;;;;;;;;;;;17.49;44.65;101105.94;20799995;28;19979;-55
2023/04/10 17:12:55;;;;;;;;;;;;;;;17.41;45.19;101043.53;20807852;28;20015;-55
2023/04/10 17:23:17;;;;;;;;;;;;;;;17.29;49.82;101038.94;20780794;28;19936;-56
2023/04/10 17:33:40;;;;;;;;;;;;;;;17.17;50.86;101017.84;20788081;28;19932;-55
2023/04/10 17:44:04;;;;;;;;;;;;;;;17.14;49.28;101004.94;20791169;28;20374;-55
2023/04/10 17:54:27;;;;;;;;;;;;;;;17.14;47.93;100989.25;20782415;28;20422;-55
2023/04/10 18:04:48;;;;;;;;;;;;;;;17.09;48.63;100977.25;20789858;28;20055;-56
2023/04/10 18:15:10;;;;;;;;;;;;;;;17.10;49.46;100992.00;20793602;28;19928;-56
2023/04/10 18:25:31;;;;;;;;;;;;;;;17.01;50.08;100997.75;20784186;28;19969;-56
2023/04/10 18:35:57;;;;;;;;;;;;;;;16.95;43.77;101005.94;20791714;28;19952;-56
2023/04/10 18:46:19;;;;;;;;;;;;;;;16.91;49.61;100991.34;20796409;28;20011;-55
2023/04/10 18:56:40;;;;;;;;;;;;;;;16.65;47.12;100985.78;20796108;28;19963;-56
2023/04/10 19:07:02;;;;;;;;;;;;;;;16.40;51.71;100994.03;20795095;28;19929;-56
2023/04/10 19:17:24;;;;;;;;;;;;;;;15.81;56.10;101009.22;20793462;28;20584;-55
2023/04/10 19:27:45;;;;;;;;;;;;;;;15.24;60.40;101011.91;20796593;28;19944;-54
2023/04/10 19:38:07;;;;;;;;;;;;;;;14.54;64.11;101002.06;20797896;28;19941;-55
2023/04/10 19:48:28;;;;;;;;;;;;;;;14.19;66.73;100966.28;20811309;28;19925;-55
2023/04/10 19:58:49;;;;;;;;;;;;;;;14.01;69.06;100951.41;20806353;28;19925;-56
2023/04/10 20:09:11;;;;;;;;;;;;;;;13.67;70.59;100962.38;20806455;28;19979;-56
2023/04/10 20:19:32;;;;;;;;;;;;;;;13.33;75.49;100935.19;20812307;28;21556;-54
2023/04/10 20:29:54;;;;;;;;;;;;;;;13.04;76.31;100928.50;20803230;28;19980;-54
2023/04/10 20:40:15;;;;;;;;;;;;;;;12.84;78.53;100900.69;20790398;28;20265;-54
2023/04/10 20:50:41;;;;;;;;;;;;;;;12.75;79.79;100859.47;20801407;28;19929;-55
2023/04/10 21:01:02;;;;;;;;;;;;;;;12.79;78.03;100852.41;20795398;28;19987;-53
2023/04/10 21:11:27;;;;;;;;;;;;;;;12.71;80.18;100826.75;20802885;28;19987;-54
2023/04/10 21:21:48;;;;;;;;;;;;;;;12.70;77.80;100817.28;20779613;28;19975;-56
2023/04/10 21:32:10;;;;;;;;;;;;;;;12.63;78.54;100809.78;20802293;28;19925;-56
2023/04/10 21:42:32;;;;;;;;;;;;;;;12.63;79.15;100796.81;20799608;28;19961;-55
2023/04/10 21:52:53;;;;;;;;;;;;;;;12.58;83.82;100798.75;20793295;28;19937;-55
2023/04/10 22:03:15;;;;;;;;;;;;;;;12.63;78.24;100818.44;20806055;28;20530;-56
2023/04/10 22:13:36;;;;;;;;;;;;;;;12.58;76.96;100794.38;20796780;28;20357;-55
2023/04/10 22:23:58;;;;;;;;;;;;;;;12.56;79.89;100790.16;20774924;28;19969;-56
2023/04/10 22:34:19;;;;;;;;;;;;;;;12.46;77.92;100784.47;20784815;28;19991;-55
2023/04/10 22:44:40;;;;;;;;;;;;;;;12.40;78.19;100765.72;20775159;28;19929;-56
2023/04/10 22:55:03;;;;;;;;;;;;;;;12.44;77.91;100760.31;20795029;28;19957;-56
2023/04/10 23:05:26;;;;;;;;;;;;;;;12.39;75.26;100741.50;20790763;28;20379;-56
2023/04/10 23:15:48;;;;;;;;;;;;;;;12.37;78.06;100704.38;20805362;28;20350;-56
2023/04/10 23:26:12;;;;;;;;;;;;;;;12.38;75.83;100708.66;20809727;28;20027;-55
2023/04/10 23:36:34;;;;;;;;;;;;;;;12.35;76.12;100702.75;20824752;28;20396;-56
2023/04/10 23:46:55;;;;;;;;;;;;;;;12.24;76.82;100703.16;20798490;28;20013;-56
2023/04/10 23:57:17;;;;;;;;;;;;;;;12.21;76.32;100705.91;20800920;28;19937;-55
